Aeroporto :
LOGIN :

Iscrizione | Disclaimer

   EN    FR    IT 

 










Sommario :    VFR   VFR Marginale   IFR   IFR Intensivo   IFR Molto Intensivo
Visibilità : 
Base nubi : 
>= 8 km
>= 3000ft
5 / 8 km
1000 / 3000 ft
1500m / 5 km
500 / 1000 ft
800 / 1500m
200 / 500 ft
< 800m
< 200 ft
Simboli :   Temporali  Nebbia  Neve Forte  Precipitazioni Forti  Vento > 20 kt
SIGMETs :   Varie  Temporali  Ghiacco  Turbolenza  Onda orograficha  Ceneri Vulcaniche






- Altitudine del aeroporto : 1460 ft


LSMA - Alpnach

ULTIMO METAR :
  • 191750Z AUTO 19003KT 150V240 9999NDV DZ FEW035 BKN053 OVC071 17/16 Q1019 RMK

METARs OBSOLETI :
  • 191720Z AUTO 21005KT 9999NDV -SHRA FEW039 SCT049 OVC066 17/16 Q1019 RESHRA RMK
  • 191650Z AUTO 22003KT 180V260 9999NDV -SHRA FEW031 BKN059 OVC068 17/16 Q1019 RESHRA RMK
  • 191620Z AUTO VRB03KT 9999NDV -SHRA FEW044 OVC050 17/16 Q1019 RMK
  • 191550Z AUTO VRB02KT 9999NDV -SHRA FEW009 BKN055 OVC076 17/16 Q1018 RMK
  • 191520Z AUTO 22003KT 190V250 9999NDV FEW022 BKN052 BKN110 17/15 Q1018 RMK

Previsioni scadute.



MetMap, La meteo Aeronautica in un colpo d'occhio ! - Copyright ORBIFLY Dicembre 2007 - Disclaimer

ORBIFLY MET'MAP TEAM :

Programmazione e sviluppo : Alexandra Zaïnal
Concezione : Baudouin d'Aumeries
Supporto tecnico e logistico : Manuel Goepfert
Aiuto : Marc-Olivier Méhu
Aiuto per la traduzione : Arnaldo La Scala




FONTI E CREDITI :

   NOAA